sensor_id;sensor_type;location;lat;lon;timestamp;temperature;humidity
6788;DHT22;3431;47.966;10.268;2022-11-03T00:00:13;5.20;99.90
6788;DHT22;3431;47.966;10.268;2022-11-03T00:00:35;5.20;99.90
6788;DHT22;3431;47.966;10.268;2022-11-03T00:00:56;5.30;99.90
6788;DHT22;3431;47.966;10.268;2022-11-03T00:01:18;5.20;99.90
6788;DHT22;3431;47.966;10.268;2022-11-03T00:01:41;5.30;99.90
6788;DHT22;3431;47.966;10.268;2022-11-03T00:02:03;5.20;99.90
6788;DHT22;3431;47.966;10.268;2022-11-03T00:02:25;5.30;99.90
6788;DHT22;3431;47.966;10.268;2022-11-03T00:02:46;5.30;99.90
6788;DHT22;3431;47.966;10.268;2022-11-03T00:03:10;5.30;99.90
6788;DHT22;3431;47.966;10.268;2022-11-03T00:03:32;5.30;99.90
6788;DHT22;3431;47.966;10.268;2022-11-03T00:03:53;5.30;99.90
6788;DHT22;3431;47.966;10.268;2022-11-03T00:04:16;5.30;99.90
6788;DHT22;3431;47.966;10.268;2022-11-03T00:04:39;5.30;99.90
6788;DHT22;3431;47.966;10.268;2022-11-03T00:05:01;5.30;99.90
6788;DHT22;3431;47.966;10.268;2022-11-03T00:05:42;5.30;99.90
6788;DHT22;3431;47.966;10.268;2022-11-03T00:06:22;5.30;99.90
6788;DHT22;3431;47.966;10.268;2022-11-03T00:06:46;5.30;99.90
6788;DHT22;3431;47.966;10.268;2022-11-03T00:07:08;5.30;99.90
6788;DHT22;3431;47.966;10.268;2022-11-03T00:07:30;5.30;99.90
6788;DHT22;3431;47.966;10.268;2022-11-03T00:07:52;5.30;99.90
6788;DHT22;3431;47.966;10.268;2022-11-03T00:08:14;5.30;99.90
6788;DHT22;3431;47.966;10.268;2022-11-03T00:08:37;5.30;99.90
6788;DHT22;3431;47.966;10.268;2022-11-03T00:09:00;5.30;99.90
6788;DHT22;3431;47.966;10.268;2022-11-03T00:09:23;5.20;99.90
6788;DHT22;3431;47.966;10.268;2022-11-03T00:09:47;5.30;99.90
6788;DHT22;3431;47.966;10.268;2022-11-03T00:10:08;5.30;99.90
6788;DHT22;3431;47.966;10.268;2022-11-03T00:10:30;5.20;99.90
6788;DHT22;3431;47.966;10.268;2022-11-03T00:10:53;5.20;99.90
6788;DHT22;3431;47.966;10.268;2022-11-03T00:11:14;5.20;99.90
6788;DHT22;3431;47.966;10.268;2022-11-03T00:11:37;5.20;99.90
6788;DHT22;3431;47.966;10.268;2022-11-03T00:11:59;5.20;99.90
6788;DHT22;3431;47.966;10.268;2022-11-03T00:12:21;5.20;99.90
6788;DHT22;3431;47.966;10.268;2022-11-03T00:12:44;5.20;99.90
6788;DHT22;3431;47.966;10.268;2022-11-03T00:13:05;5.20;99.90
6788;DHT22;3431;47.966;10.268;2022-11-03T00:13:27;5.20;99.90
6788;DHT22;3431;47.966;10.268;2022-11-03T00:13:49;5.20;99.90
6788;DHT22;3431;47.966;10.268;2022-11-03T00:14:12;5.20;99.90
6788;DHT22;3431;47.966;10.268;2022-11-03T00:14:34;5.20;99.90
6788;DHT22;3431;47.966;10.268;2022-11-03T00:14:56;5.20;99.90
6788;DHT22;3431;47.966;10.268;2022-11-03T00:15:18;5.20;99.90
6788;DHT22;3431;47.966;10.268;2022-11-03T00:15:47;5.20;99.90
6788;DHT22;3431;47.966;10.268;2022-11-03T00:16:11;5.20;99.90
6788;DHT22;3431;47.966;10.268;2022-11-03T00:16:33;5.20;99.90
6788;DHT22;3431;47.966;10.268;2022-11-03T00:16:54;5.20;99.90
6788;DHT22;3431;47.966;10.268;2022-11-03T00:17:17;5.20;99.90
6788;DHT22;3431;47.966;10.268;2022-11-03T00:17:38;5.20;99.90
6788;DHT22;3431;47.966;10.268;2022-11-03T00:18:00;5.20;99.90
6788;DHT22;3431;47.966;10.268;2022-11-03T00:18:22;5.20;99.90
6788;DHT22;3431;47.966;10.268;2022-11-03T00:18:44;5.20;99.90
6788;DHT22;3431;47.966;10.268;2022-11-03T00:19:08;5.20;99.90
6788;DHT22;3431;47.966;10.268;2022-11-03T00:19:30;5.20;99.90
6788;DHT22;3431;47.966;10.268;2022-11-03T00:19:51;5.20;99.90
6788;DHT22;3431;47.966;10.268;2022-11-03T00:20:13;5.20;99.90
6788;DHT22;3431;47.966;10.268;2022-11-03T00:20:36;5.20;99.90
6788;DHT22;3431;47.966;10.268;2022-11-03T00:20:59;5.20;99.90
6788;DHT22;3431;47.966;10.268;2022-11-03T00:21:21;5.20;99.90
6788;DHT22;3431;47.966;10.268;2022-11-03T00:21:44;5.20;99.90
6788;DHT22;3431;47.966;10.268;2022-11-03T00:22:06;5.20;99.90
6788;DHT22;3431;47.966;10.268;2022-11-03T00:22:27;5.20;99.90
6788;DHT22;3431;47.966;10.268;2022-11-03T00:22:50;5.20;99.90
6788;DHT22;3431;47.966;10.268;2022-11-03T00:23:12;5.20;99.90
6788;DHT22;3431;47.966;10.268;2022-11-03T00:23:35;5.20;99.90
6788;DHT22;3431;47.966;10.268;2022-11-03T00:23:57;5.20;99.90
6788;DHT22;3431;47.966;10.268;2022-11-03T00:24:19;5.20;99.90
6788;DHT22;3431;47.966;10.268;2022-11-03T00:24:41;5.20;99.90
6788;DHT22;3431;47.966;10.268;2022-11-03T00:25:03;5.20;99.90
6788;DHT22;3431;47.966;10.268;2022-11-03T00:25:25;5.20;99.90
6788;DHT22;3431;47.966;10.268;2022-11-03T00:25:47;5.20;99.90
6788;DHT22;3431;47.966;10.268;2022-11-03T00:26:09;5.20;99.90
6788;DHT22;3431;47.966;10.268;2022-11-03T00:26:34;5.20;99.90
6788;DHT22;3431;47.966;10.268;2022-11-03T00:26:56;5.20;99.90
6788;DHT22;3431;47.966;10.268;2022-11-03T00:27:18;5.20;99.90
6788;DHT22;3431;47.966;10.268;2022-11-03T00:27:39;5.20;99.90
6788;DHT22;3431;47.966;10.268;2022-11-03T00:28:02;5.20;99.90
6788;DHT22;3431;47.966;10.268;2022-11-03T00:28:23;5.20;99.90
6788;DHT22;3431;47.966;10.268;2022-11-03T00:28:47;5.20;99.90
6788;DHT22;3431;47.966;10.268;2022-11-03T00:29:10;5.20;99.90
6788;DHT22;3431;47.966;10.268;2022-11-03T00:29:32;5.20;99.90
6788;DHT22;3431;47.966;10.268;2022-11-03T00:29:54;5.20;99.90
6788;DHT22;3431;47.966;10.268;2022-11-03T00:30:16;5.10;99.90
6788;DHT22;3431;47.966;10.268;2022-11-03T00:30:38;5.10;99.90
6788;DHT22;3431;47.966;10.268;2022-11-03T00:31:00;5.10;99.90
6788;DHT22;3431;47.966;10.268;2022-11-03T00:31:25;5.10;99.90
6788;DHT22;3431;47.966;10.268;2022-11-03T00:31:47;5.10;99.90
6788;DHT22;3431;47.966;10.268;2022-11-03T00:32:08;5.10;99.90
6788;DHT22;3431;47.966;10.268;2022-11-03T00:32:30;5.10;99.90
6788;DHT22;3431;47.966;10.268;2022-11-03T00:32:51;5.10;99.90
6788;DHT22;3431;47.966;10.268;2022-11-03T00:33:14;5.00;99.90
6788;DHT22;3431;47.966;10.268;2022-11-03T00:33:38;5.00;99.90
6788;DHT22;3431;47.966;10.268;2022-11-03T00:34:01;5.00;99.90
6788;DHT22;3431;47.966;10.268;2022-11-03T00:34:24;5.00;99.90
6788;DHT22;3431;47.966;10.268;2022-11-03T00:34:45;5.00;99.90
6788;DHT22;3431;47.966;10.268;2022-11-03T00:35:07;5.00;99.90
6788;DHT22;3431;47.966;10.268;2022-11-03T00:35:29;5.00;99.90
6788;DHT22;3431;47.966;10.268;2022-11-03T00:35:50;5.00;99.90
6788;DHT22;3431;47.966;10.268;2022-11-03T00:36:19;5.00;99.90
6788;DHT22;3431;47.966;10.268;2022-11-03T00:36:42;4.90;99.90
6788;DHT22;3431;47.966;10.268;2022-11-03T00:37:03;5.00;99.90
6788;DHT22;3431;47.966;10.268;2022-11-03T00:37:25;4.90;99.90
6788;DHT22;3431;47.966;10.268;2022-11-03T00:37:47;5.00;99.90
6788;DHT22;3431;47.966;10.268;2022-11-03T00:38:09;4.90;99.90
6788;DHT22;3431;47.966;10.268;2022-11-03T00:38:30;5.00;99.90
6788;DHT22;3431;47.966;10.268;2022-11-03T00:38:52;4.90;99.90
6788;DHT22;3431;47.966;10.268;2022-11-03T00:39:15;4.90;99.90
6788;DHT22;3431;47.966;10.268;2022-11-03T00:39:36;4.90;99.90
6788;DHT22;3431;47.966;10.268;2022-11-03T00:39:58;4.90;99.90
6788;DHT22;3431;47.966;10.268;2022-11-03T00:40:19;4.90;99.90
6788;DHT22;3431;47.966;10.268;2022-11-03T00:40:42;4.90;99.90
6788;DHT22;3431;47.966;10.268;2022-11-03T00:41:04;4.90;99.90
6788;DHT22;3431;47.966;10.268;2022-11-03T00:41:26;4.90;99.90
6788;DHT22;3431;47.966;10.268;2022-11-03T00:41:48;4.90;99.90
6788;DHT22;3431;47.966;10.268;2022-11-03T00:42:10;5.00;99.90
6788;DHT22;3431;47.966;10.268;2022-11-03T00:42:32;5.00;99.90
6788;DHT22;3431;47.966;10.268;2022-11-03T00:42:55;5.00;99.90
6788;DHT22;3431;47.966;10.268;2022-11-03T00:43:16;5.00;99.90
6788;DHT22;3431;47.966;10.268;2022-11-03T00:43:39;5.00;99.90
6788;DHT22;3431;47.966;10.268;2022-11-03T00:44:01;5.00;99.90
6788;DHT22;3431;47.966;10.268;2022-11-03T00:44:23;5.00;99.90
6788;DHT22;3431;47.966;10.268;2022-11-03T00:44:45;5.00;99.90
6788;DHT22;3431;47.966;10.268;2022-11-03T00:45:08;5.00;99.90
6788;DHT22;3431;47.966;10.268;2022-11-03T00:45:29;5.00;99.90
6788;DHT22;3431;47.966;10.268;2022-11-03T00:45:51;5.00;99.90
6788;DHT22;3431;47.966;10.268;2022-11-03T00:46:13;5.00;99.90
6788;DHT22;3431;47.966;10.268;2022-11-03T00:46:36;5.00;99.90
6788;DHT22;3431;47.966;10.268;2022-11-03T00:46:57;5.00;99.90
6788;DHT22;3431;47.966;10.268;2022-11-03T00:47:19;5.00;99.90
6788;DHT22;3431;47.966;10.268;2022-11-03T00:47:40;5.00;99.90
6788;DHT22;3431;47.966;10.268;2022-11-03T00:48:23;4.90;99.90
6788;DHT22;3431;47.966;10.268;2022-11-03T00:48:52;4.90;99.90
6788;DHT22;3431;47.966;10.268;2022-11-03T00:49:13;4.80;99.90
6788;DHT22;3431;47.966;10.268;2022-11-03T00:49:35;4.80;99.90
6788;DHT22;3431;47.966;10.268;2022-11-03T00:49:56;4.80;99.90
6788;DHT22;3431;47.966;10.268;2022-11-03T00:50:19;4.70;99.90
6788;DHT22;3431;47.966;10.268;2022-11-03T00:50:41;4.60;99.90
6788;DHT22;3431;47.966;10.268;2022-11-03T00:51:04;4.60;99.90
6788;DHT22;3431;47.966;10.268;2022-11-03T00:51:28;4.60;99.90
6788;DHT22;3431;47.966;10.268;2022-11-03T00:51:51;4.50;99.90
6788;DHT22;3431;47.966;10.268;2022-11-03T00:52:12;4.50;99.90
6788;DHT22;3431;47.966;10.268;2022-11-03T00:52:34;4.50;99.90
6788;DHT22;3431;47.966;10.268;2022-11-03T00:52:56;4.50;99.90
6788;DHT22;3431;47.966;10.268;2022-11-03T00:53:17;4.40;99.90
6788;DHT22;3431;47.966;10.268;2022-11-03T00:53:40;4.40;99.90
6788;DHT22;3431;47.966;10.268;2022-11-03T00:54:05;4.30;99.90
6788;DHT22;3431;47.966;10.268;2022-11-03T00:54:27;4.20;99.90
6788;DHT22;3431;47.966;10.268;2022-11-03T00:54:48;4.10;99.90
6788;DHT22;3431;47.966;10.268;2022-11-03T00:55:10;4.10;99.90
6788;DHT22;3431;47.966;10.268;2022-11-03T00:55:31;4.00;99.90
6788;DHT22;3431;47.966;10.268;2022-11-03T00:55:53;4.00;99.90
6788;DHT22;3431;47.966;10.268;2022-11-03T00:56:17;3.90;99.90
6788;DHT22;3431;47.966;10.268;2022-11-03T00:56:40;3.90;99.90
6788;DHT22;3431;47.966;10.268;2022-11-03T00:57:02;3.80;99.90
6788;DHT22;3431;47.966;10.268;2022-11-03T00:57:25;3.80;99.90
6788;DHT22;3431;47.966;10.268;2022-11-03T00:57:47;3.80;99.90
6788;DHT22;3431;47.966;10.268;2022-11-03T00:58:08;3.80;99.90
6788;DHT22;3431;47.966;10.268;2022-11-03T00:58:30;3.80;99.90
6788;DHT22;3431;47.966;10.268;2022-11-03T00:58:53;3.80;99.90
6788;DHT22;3431;47.966;10.268;2022-11-03T00:59:15;3.80;99.90
6788;DHT22;3431;47.966;10.268;2022-11-03T00:59:37;3.80;99.90
6788;DHT22;3431;47.966;10.268;2022-11-03T00:59:59;3.80;99.90
6788;DHT22;3431;47.966;10.268;2022-11-03T01:00:20;3.80;99.90
6788;DHT22;3431;47.966;10.268;2022-11-03T01:00:43;3.80;99.90
6788;DHT22;3431;47.966;10.268;2022-11-03T01:01:06;3.80;99.90
6788;DHT22;3431;47.966;10.268;2022-11-03T01:01:30;3.80;99.90
6788;DHT22;3431;47.966;10.268;2022-11-03T01:01:51;3.80;99.90
6788;DHT22;3431;47.966;10.268;2022-11-03T01:02:14;3.90;99.90
6788;DHT22;3431;47.966;10.268;2022-11-03T01:02:35;3.90;99.90
6788;DHT22;3431;47.966;10.268;2022-11-03T01:02:57;3.90;99.90
6788;DHT22;3431;47.966;10.268;2022-11-03T01:03:18;3.90;99.90
6788;DHT22;3431;47.966;10.268;2022-11-03T01:03:42;3.90;99.90
6788;DHT22;3431;47.966;10.268;2022-11-03T01:04:27;3.90;99.90
6788;DHT22;3431;47.966;10.268;2022-11-03T01:05:07;4.00;99.90
6788;DHT22;3431;47.966;10.268;2022-11-03T01:05:48;4.00;99.90
6788;DHT22;3431;47.966;10.268;2022-11-03T01:06:28;4.00;99.90
6788;DHT22;3431;47.966;10.268;2022-11-03T01:07:08;4.10;99.90
6788;DHT22;3431;47.966;10.268;2022-11-03T01:07:30;4.10;99.90
6788;DHT22;3431;47.966;10.268;2022-11-03T01:07:52;4.10;99.90
6788;DHT22;3431;47.966;10.268;2022-11-03T01:08:13;4.10;99.90
6788;DHT22;3431;47.966;10.268;2022-11-03T01:08:36;4.10;99.90
6788;DHT22;3431;47.966;10.268;2022-11-03T01:08:58;4.10;99.90
6788;DHT22;3431;47.966;10.268;2022-11-03T01:09:22;4.10;99.90
6788;DHT22;3431;47.966;10.268;2022-11-03T01:09:44;4.10;99.90
6788;DHT22;3431;47.966;10.268;2022-11-03T01:10:07;4.10;99.90
6788;DHT22;3431;47.966;10.268;2022-11-03T01:10:29;4.20;99.90
6788;DHT22;3431;47.966;10.268;2022-11-03T01:10:51;4.10;99.90
6788;DHT22;3431;47.966;10.268;2022-11-03T01:11:27;4.20;99.90
6788;DHT22;3431;47.966;10.268;2022-11-03T01:12:06;4.20;99.90
6788;DHT22;3431;47.966;10.268;2022-11-03T01:12:28;4.20;99.90
6788;DHT22;3431;47.966;10.268;2022-11-03T01:12:50;4.30;99.90
6788;DHT22;3431;47.966;10.268;2022-11-03T01:13:12;4.30;99.90
6788;DHT22;3431;47.966;10.268;2022-11-03T01:13:34;4.30;99.90
6788;DHT22;3431;47.966;10.268;2022-11-03T01:13:55;4.30;99.90
6788;DHT22;3431;47.966;10.268;2022-11-03T01:14:17;4.30;99.90
6788;DHT22;3431;47.966;10.268;2022-11-03T01:14:41;4.30;99.90
6788;DHT22;3431;47.966;10.268;2022-11-03T01:15:03;4.30;99.90
6788;DHT22;3431;47.966;10.268;2022-11-03T01:15:25;4.30;99.90
6788;DHT22;3431;47.966;10.268;2022-11-03T01:15:47;4.30;99.90
6788;DHT22;3431;47.966;10.268;2022-11-03T01:16:09;4.40;99.90
6788;DHT22;3431;47.966;10.268;2022-11-03T01:16:31;4.40;99.90
6788;DHT22;3431;47.966;10.268;2022-11-03T01:16:52;4.40;99.90
6788;DHT22;3431;47.966;10.268;2022-11-03T01:17:17;4.40;99.90
6788;DHT22;3431;47.966;10.268;2022-11-03T01:17:39;4.40;99.90
6788;DHT22;3431;47.966;10.268;2022-11-03T01:18:01;4.40;99.90
6788;DHT22;3431;47.966;10.268;2022-11-03T01:18:22;4.40;99.90
6788;DHT22;3431;47.966;10.268;2022-11-03T01:18:44;4.30;99.90
6788;DHT22;3431;47.966;10.268;2022-11-03T01:19:06;4.40;99.90
6788;DHT22;3431;47.966;10.268;2022-11-03T01:19:29;4.40;99.90
6788;DHT22;3431;47.966;10.268;2022-11-03T01:19:51;4.40;99.90
6788;DHT22;3431;47.966;10.268;2022-11-03T01:20:12;4.40;99.90
6788;DHT22;3431;47.966;10.268;2022-11-03T01:20:35;4.40;99.90
6788;DHT22;3431;47.966;10.268;2022-11-03T01:20:57;4.40;99.90
6788;DHT22;3431;47.966;10.268;2022-11-03T01:21:18;4.40;99.90
6788;DHT22;3431;47.966;10.268;2022-11-03T01:21:40;4.40;99.90
6788;DHT22;3431;47.966;10.268;2022-11-03T01:22:01;4.40;99.90
6788;DHT22;3431;47.966;10.268;2022-11-03T01:22:24;4.40;99.90
6788;DHT22;3431;47.966;10.268;2022-11-03T01:22:46;4.40;99.90
6788;DHT22;3431;47.966;10.268;2022-11-03T01:23:07;4.40;99.90
6788;DHT22;3431;47.966;10.268;2022-11-03T01:23:29;4.40;99.90
6788;DHT22;3431;47.966;10.268;2022-11-03T01:23:50;4.40;99.90
6788;DHT22;3431;47.966;10.268;2022-11-03T01:24:13;4.40;99.90
6788;DHT22;3431;47.966;10.268;2022-11-03T01:24:34;4.30;99.90
6788;DHT22;3431;47.966;10.268;2022-11-03T01:24:56;4.30;99.90
6788;DHT22;3431;47.966;10.268;2022-11-03T01:25:18;4.30;99.90
6788;DHT22;3431;47.966;10.268;2022-11-03T01:25:40;4.30;99.90
6788;DHT22;3431;47.966;10.268;2022-11-03T01:26:03;4.30;99.90
6788;DHT22;3431;47.966;10.268;2022-11-03T01:26:25;4.30;99.90
6788;DHT22;3431;47.966;10.268;2022-11-03T01:26:46;4.40;99.90
6788;DHT22;3431;47.966;10.268;2022-11-03T01:27:10;4.30;99.90
6788;DHT22;3431;47.966;10.268;2022-11-03T01:27:33;4.30;99.90
6788;DHT22;3431;47.966;10.268;2022-11-03T01:27:55;4.30;99.90
6788;DHT22;3431;47.966;10.268;2022-11-03T01:28:16;4.30;99.90
6788;DHT22;3431;47.966;10.268;2022-11-03T01:28:41;4.30;99.90
6788;DHT22;3431;47.966;10.268;2022-11-03T01:29:03;4.30;99.90
6788;DHT22;3431;47.966;10.268;2022-11-03T01:29:25;4.30;99.90
6788;DHT22;3431;47.966;10.268;2022-11-03T01:29:48;4.30;99.90
6788;DHT22;3431;47.966;10.268;2022-11-03T01:30:10;4.30;99.90
6788;DHT22;3431;47.966;10.268;2022-11-03T01:30:32;4.40;99.90
6788;DHT22;3431;47.966;10.268;2022-11-03T01:30:54;4.40;99.90
6788;DHT22;3431;47.966;10.268;2022-11-03T01:31:18;4.40;99.90
6788;DHT22;3431;47.966;10.268;2022-11-03T01:31:41;4.40;99.90
6788;DHT22;3431;47.966;10.268;2022-11-03T01:32:03;4.40;99.90
6788;DHT22;3431;47.966;10.268;2022-11-03T01:32:25;4.40;99.90
6788;DHT22;3431;47.966;10.268;2022-11-03T01:32:46;4.40;99.90
6788;DHT22;3431;47.966;10.268;2022-11-03T01:33:09;4.40;99.90
6788;DHT22;3431;47.966;10.268;2022-11-03T01:33:30;4.40;99.90
6788;DHT22;3431;47.966;10.268;2022-11-03T01:33:53;4.40;99.90
6788;DHT22;3431;47.966;10.268;2022-11-03T01:34:17;4.40;99.90
6788;DHT22;3431;47.966;10.268;2022-11-03T01:34:42;4.40;99.90
6788;DHT22;3431;47.966;10.268;2022-11-03T01:35:04;4.40;99.90
6788;DHT22;3431;47.966;10.268;2022-11-03T01:35:25;4.40;99.90
6788;DHT22;3431;47.966;10.268;2022-11-03T01:35:51;4.40;99.90
6788;DHT22;3431;47.966;10.268;2022-11-03T01:36:14;4.40;99.90
6788;DHT22;3431;47.966;10.268;2022-11-03T01:36:36;4.40;99.90
6788;DHT22;3431;47.966;10.268;2022-11-03T01:36:58;4.40;99.90
6788;DHT22;3431;47.966;10.268;2022-11-03T01:37:19;4.40;99.90
6788;DHT22;3431;47.966;10.268;2022-11-03T01:37:42;4.40;99.90
6788;DHT22;3431;47.966;10.268;2022-11-03T01:38:04;4.40;99.90
6788;DHT22;3431;47.966;10.268;2022-11-03T01:38:25;4.40;99.90
6788;DHT22;3431;47.966;10.268;2022-11-03T01:38:47;4.40;99.90
6788;DHT22;3431;47.966;10.268;2022-11-03T01:39:09;4.40;99.90
6788;DHT22;3431;47.966;10.268;2022-11-03T01:39:32;4.40;99.90
6788;DHT22;3431;47.966;10.268;2022-11-03T01:39:54;4.40;99.90
6788;DHT22;3431;47.966;10.268;2022-11-03T01:40:16;4.40;99.90
6788;DHT22;3431;47.966;10.268;2022-11-03T01:40:37;4.40;99.90
6788;DHT22;3431;47.966;10.268;2022-11-03T01:41:01;4.40;99.90
6788;DHT22;3431;47.966;10.268;2022-11-03T01:41:26;4.40;99.90
6788;DHT22;3431;47.966;10.268;2022-11-03T01:41:50;4.40;99.90
6788;DHT22;3431;47.966;10.268;2022-11-03T01:42:12;4.40;99.90
6788;DHT22;3431;47.966;10.268;2022-11-03T01:42:35;4.40;99.90
6788;DHT22;3431;47.966;10.268;2022-11-03T01:43:14;4.40;99.90
6788;DHT22;3431;47.966;10.268;2022-11-03T01:43:37;4.40;99.90
6788;DHT22;3431;47.966;10.268;2022-11-03T01:44:27;4.40;99.90
6788;DHT22;3431;47.966;10.268;2022-11-03T01:44:50;4.40;99.90
6788;DHT22;3431;47.966;10.268;2022-11-03T01:45:11;4.40;99.90
6788;DHT22;3431;47.966;10.268;2022-11-03T01:45:33;4.40;99.90
6788;DHT22;3431;47.966;10.268;2022-11-03T01:46:00;4.40;99.90
6788;DHT22;3431;47.966;10.268;2022-11-03T01:46:26;4.40;99.90
6788;DHT22;3431;47.966;10.268;2022-11-03T01:46:52;4.40;99.90
6788;DHT22;3431;47.966;10.268;2022-11-03T01:47:21;4.40;99.90
6788;DHT22;3431;47.966;10.268;2022-11-03T01:47:45;4.40;99.90
6788;DHT22;3431;47.966;10.268;2022-11-03T01:48:07;4.40;99.90
6788;DHT22;3431;47.966;10.268;2022-11-03T01:48:30;4.40;99.90
6788;DHT22;3431;47.966;10.268;2022-11-03T01:48:58;4.40;99.90
6788;DHT22;3431;47.966;10.268;2022-11-03T01:49:24;4.40;99.90
6788;DHT22;3431;47.966;10.268;2022-11-03T01:49:53;4.30;99.90
6788;DHT22;3431;47.966;10.268;2022-11-03T01:50:18;4.40;99.90
6788;DHT22;3431;47.966;10.268;2022-11-03T01:50:42;4.40;99.90
6788;DHT22;3431;47.966;10.268;2022-11-03T01:51:05;4.40;99.90
6788;DHT22;3431;47.966;10.268;2022-11-03T01:51:28;4.30;99.90
6788;DHT22;3431;47.966;10.268;2022-11-03T01:51:53;4.30;99.90
6788;DHT22;3431;47.966;10.268;2022-11-03T01:52:21;4.40;99.90
6788;DHT22;3431;47.966;10.268;2022-11-03T01:52:49;4.40;99.90
6788;DHT22;3431;47.966;10.268;2022-11-03T01:53:12;4.30;99.90
6788;DHT22;3431;47.966;10.268;2022-11-03T01:53:36;4.40;99.90
6788;DHT22;3431;47.966;10.268;2022-11-03T01:54:00;4.40;99.90
6788;DHT22;3431;47.966;10.268;2022-11-03T01:54:25;4.40;99.90
6788;DHT22;3431;47.966;10.268;2022-11-03T01:54:52;4.40;99.90
6788;DHT22;3431;47.966;10.268;2022-11-03T01:55:18;4.40;99.90
6788;DHT22;3431;47.966;10.268;2022-11-03T01:55:41;4.40;99.90
6788;DHT22;3431;47.966;10.268;2022-11-03T01:56:03;4.40;99.90
6788;DHT22;3431;47.966;10.268;2022-11-03T01:56:25;4.40;99.90
6788;DHT22;3431;47.966;10.268;2022-11-03T01:56:47;4.40;99.90
6788;DHT22;3431;47.966;10.268;2022-11-03T01:57:12;4.30;99.90
6788;DHT22;3431;47.966;10.268;2022-11-03T01:57:38;4.30;99.90
6788;DHT22;3431;47.966;10.268;2022-11-03T01:58:04;4.30;99.90
6788;DHT22;3431;47.966;10.268;2022-11-03T01:58:30;4.30;99.90
6788;DHT22;3431;47.966;10.268;2022-11-03T01:58:55;4.30;99.90
6788;DHT22;3431;47.966;10.268;2022-11-03T01:59:17;4.30;99.90
6788;DHT22;3431;47.966;10.268;2022-11-03T01:59:41;4.20;99.90
6788;DHT22;3431;47.966;10.268;2022-11-03T02:00:04;4.20;99.90
6788;DHT22;3431;47.966;10.268;2022-11-03T02:00:34;4.20;99.90
6788;DHT22;3431;47.966;10.268;2022-11-03T02:00:57;4.20;99.90
6788;DHT22;3431;47.966;10.268;2022-11-03T02:01:20;4.20;99.90
6788;DHT22;3431;47.966;10.268;2022-11-03T02:01:42;4.20;99.90
6788;DHT22;3431;47.966;10.268;2022-11-03T02:02:04;4.20;99.90
6788;DHT22;3431;47.966;10.268;2022-11-03T02:02:26;4.20;99.90
6788;DHT22;3431;47.966;10.268;2022-11-03T02:02:49;4.20;99.90
6788;DHT22;3431;47.966;10.268;2022-11-03T02:03:12;4.20;99.90
6788;DHT22;3431;47.966;10.268;2022-11-03T02:03:38;4.20;99.90
6788;DHT22;3431;47.966;10.268;2022-11-03T02:04:03;4.20;99.90
6788;DHT22;3431;47.966;10.268;2022-11-03T02:04:30;4.20;99.90
6788;DHT22;3431;47.966;10.268;2022-11-03T02:04:56;4.20;99.90
6788;DHT22;3431;47.966;10.268;2022-11-03T02:05:21;4.20;99.90
6788;DHT22;3431;47.966;10.268;2022-11-03T02:05:45;4.20;99.90
6788;DHT22;3431;47.966;10.268;2022-11-03T02:06:07;4.20;99.90
6788;DHT22;3431;47.966;10.268;2022-11-03T02:06:29;4.20;99.90
6788;DHT22;3431;47.966;10.268;2022-11-03T02:06:58;4.20;99.90
6788;DHT22;3431;47.966;10.268;2022-11-03T02:07:25;4.20;99.90
6788;DHT22;3431;47.966;10.268;2022-11-03T02:07:51;4.20;99.90
6788;DHT22;3431;47.966;10.268;2022-11-03T02:08:17;4.20;99.90
6788;DHT22;3431;47.966;10.268;2022-11-03T02:08:45;4.10;99.90
6788;DHT22;3431;47.966;10.268;2022-11-03T02:09:08;4.20;99.90
6788;DHT22;3431;47.966;10.268;2022-11-03T02:09:31;4.10;99.90
6788;DHT22;3431;47.966;10.268;2022-11-03T02:09:53;4.10;99.90
6788;DHT22;3431;47.966;10.268;2022-11-03T02:10:16;4.10;99.90
6788;DHT22;3431;47.966;10.268;2022-11-03T02:10:38;4.10;99.90
6788;DHT22;3431;47.966;10.268;2022-11-03T02:11:00;4.10;99.90
6788;DHT22;3431;47.966;10.268;2022-11-03T02:11:42;4.10;99.90
6788;DHT22;3431;47.966;10.268;2022-11-03T02:12:22;4.10;99.90
6788;DHT22;3431;47.966;10.268;2022-11-03T02:12:46;4.10;99.90
6788;DHT22;3431;47.966;10.268;2022-11-03T02:13:14;4.10;99.90
6788;DHT22;3431;47.966;10.268;2022-11-03T02:13:36;4.10;99.90
6788;DHT22;3431;47.966;10.268;2022-11-03T02:13:57;4.10;99.90
6788;DHT22;3431;47.966;10.268;2022-11-03T02:14:19;4.10;99.90
6788;DHT22;3431;47.966;10.268;2022-11-03T02:14:44;4.10;99.90
6788;DHT22;3431;47.966;10.268;2022-11-03T02:15:10;4.10;99.90
6788;DHT22;3431;47.966;10.268;2022-11-03T02:15:33;4.20;99.90
6788;DHT22;3431;47.966;10.268;2022-11-03T02:15:57;4.10;99.90
6788;DHT22;3431;47.966;10.268;2022-11-03T02:16:21;4.10;99.90
6788;DHT22;3431;47.966;10.268;2022-11-03T02:16:48;4.10;99.90
6788;DHT22;3431;47.966;10.268;2022-11-03T02:17:12;4.10;99.90
6788;DHT22;3431;47.966;10.268;2022-11-03T02:17:36;4.10;99.90
6788;DHT22;3431;47.966;10.268;2022-11-03T02:18:00;4.10;99.90
6788;DHT22;3431;47.966;10.268;2022-11-03T02:18:25;4.10;99.90
6788;DHT22;3431;47.966;10.268;2022-11-03T02:18:48;4.10;99.90
6788;DHT22;3431;47.966;10.268;2022-11-03T02:19:17;4.10;99.90
6788;DHT22;3431;47.966;10.268;2022-11-03T02:19:43;4.10;99.90
6788;DHT22;3431;47.966;10.268;2022-11-03T02:20:09;4.10;99.90
6788;DHT22;3431;47.966;10.268;2022-11-03T02:20:34;4.10;99.90
6788;DHT22;3431;47.966;10.268;2022-11-03T02:21:01;4.10;99.90
6788;DHT22;3431;47.966;10.268;2022-11-03T02:21:26;4.10;99.90
6788;DHT22;3431;47.966;10.268;2022-11-03T02:21:55;4.10;99.90
6788;DHT22;3431;47.966;10.268;2022-11-03T02:22:42;4.10;99.90
6788;DHT22;3431;47.966;10.268;2022-11-03T02:23:19;4.10;99.90
6788;DHT22;3431;47.966;10.268;2022-11-03T02:23:49;4.10;99.90
6788;DHT22;3431;47.966;10.268;2022-11-03T02:24:20;4.10;99.90
6788;DHT22;3431;47.966;10.268;2022-11-03T02:24:48;4.10;99.90
6788;DHT22;3431;47.966;10.268;2022-11-03T02:25:17;4.10;99.90
6788;DHT22;3431;47.966;10.268;2022-11-03T02:25:43;4.20;99.90
6788;DHT22;3431;47.966;10.268;2022-11-03T02:26:05;4.10;99.90
6788;DHT22;3431;47.966;10.268;2022-11-03T02:26:28;4.10;99.90
6788;DHT22;3431;47.966;10.268;2022-11-03T02:26:53;4.20;99.90
6788;DHT22;3431;47.966;10.268;2022-11-03T02:27:15;4.10;99.90
6788;DHT22;3431;47.966;10.268;2022-11-03T02:27:37;4.20;99.90
6788;DHT22;3431;47.966;10.268;2022-11-03T02:27:59;4.20;99.90
6788;DHT22;3431;47.966;10.268;2022-11-03T02:28:23;4.20;99.90
6788;DHT22;3431;47.966;10.268;2022-11-03T02:28:45;4.20;99.90
6788;DHT22;3431;47.966;10.268;2022-11-03T02:29:07;4.20;99.90
6788;DHT22;3431;47.966;10.268;2022-11-03T02:29:29;4.10;99.90
6788;DHT22;3431;47.966;10.268;2022-11-03T02:29:50;4.20;99.90
6788;DHT22;3431;47.966;10.268;2022-11-03T02:30:13;4.20;99.90
6788;DHT22;3431;47.966;10.268;2022-11-03T02:30:38;4.20;99.90
6788;DHT22;3431;47.966;10.268;2022-11-03T02:31:09;4.20;99.90
6788;DHT22;3431;47.966;10.268;2022-11-03T02:31:37;4.20;99.90
6788;DHT22;3431;47.966;10.268;2022-11-03T02:32:05;4.20;99.90
6788;DHT22;3431;47.966;10.268;2022-11-03T02:32:32;4.20;99.90
6788;DHT22;3431;47.966;10.268;2022-11-03T02:33:03;4.20;99.90
6788;DHT22;3431;47.966;10.268;2022-11-03T02:33:36;4.20;99.90
6788;DHT22;3431;47.966;10.268;2022-11-03T02:34:05;4.20;99.90
6788;DHT22;3431;47.966;10.268;2022-11-03T02:34:35;4.20;99.90
6788;DHT22;3431;47.966;10.268;2022-11-03T02:35:07;4.20;99.90
6788;DHT22;3431;47.966;10.268;2022-11-03T02:35:34;4.10;99.90
6788;DHT22;3431;47.966;10.268;2022-11-03T02:36:04;4.10;99.90